Pays
Station

 

Conditions  météo  pour  Pattani  -  Thaïlande    Thaïlande

  
32 °C
    
 
 

METAR pour Pattani :

VTSK 230500Z 06005KT 9999 FEW025 32/23 Q1012

 

Voici le bulletin pour Pattani - Thaïlande.
 
Le bulletin a été fait il y a 17 minutes, à 05:00 UTC .
Le vent soufflait à la vitesse de 2.6 mètres par seconde de Est/Nord-est (060°).
 
La température était de 32 °C, avec un point de rosée à 23 °C.
La température ressentie était de 37 °C.
 
La pression atmosphérique était de 1012 hPa.
L'humidité relative était de 59.1%.
 
Il y avait 1 à 2/8ème de nébulosité à une hauteur de 762 mètres.
 
La visibilité globale était de supérieure à 10 kilomètres.
 

 
 
 

Pays :   A   B   C   D   E   F   G   H   I   J   K   L   M   N   O   P   Q   R   S   T   U   V   W   Y   Z

 

Partenaires :  Info Météo avec Met'info
Météo Marine avec MeteoMarine.net
Infos Site  |  Infos Légales  |  Crédits  |  Confidentialité
Contactez-nous  |  Ajouter aux favoris
© 2013-2018 METAR - Tous droits réservés